sensor_id;sensor_type;location;lat;lon;timestamp;temperature;humidity
52656;SHT85;35474;51.032;6.998;2023-06-19T00:00:35;22.23;66.57
52656;SHT85;35474;51.032;6.998;2023-06-19T00:03:02;22.15;66.70
52656;SHT85;35474;51.032;6.998;2023-06-19T00:05:29;22.06;66.91
52656;SHT85;35474;51.032;6.998;2023-06-19T00:07:58;22.06;66.63
52656;SHT85;35474;51.032;6.998;2023-06-19T00:10:25;22.05;66.25
52656;SHT85;35474;51.032;6.998;2023-06-19T00:12:57;22.06;66.04
52656;SHT85;35474;51.032;6.998;2023-06-19T00:15:23;22.06;65.91
52656;SHT85;35474;51.032;6.998;2023-06-19T00:17:50;22.05;65.81
52656;SHT85;35474;51.032;6.998;2023-06-19T00:20:17;22.00;65.98
52656;SHT85;35474;51.032;6.998;2023-06-19T00:22:44;22.00;65.99
52656;SHT85;35474;51.032;6.998;2023-06-19T00:25:10;22.08;65.55
52656;SHT85;35474;51.032;6.998;2023-06-19T00:27:37;22.13;65.28
52656;SHT85;35474;51.032;6.998;2023-06-19T00:30:05;22.09;65.40
52656;SHT85;35474;51.032;6.998;2023-06-19T00:32:32;22.02;65.58
52656;SHT85;35474;51.032;6.998;2023-06-19T00:35:15;21.99;65.71
52656;SHT85;35474;51.032;6.998;2023-06-19T00:37:44;21.90;65.92
52656;SHT85;35474;51.032;6.998;2023-06-19T00:40:24;21.90;66.30
52656;SHT85;35474;51.032;6.998;2023-06-19T00:42:54;21.83;66.50
52656;SHT85;35474;51.032;6.998;2023-06-19T00:45:21;21.82;66.99
52656;SHT85;35474;51.032;6.998;2023-06-19T00:47:48;21.75;67.36
52656;SHT85;35474;51.032;6.998;2023-06-19T00:50:14;21.77;67.26
52656;SHT85;35474;51.032;6.998;2023-06-19T00:52:41;21.75;67.45
52656;SHT85;35474;51.032;6.998;2023-06-19T00:55:07;21.61;68.00
52656;SHT85;35474;51.032;6.998;2023-06-19T00:57:35;21.65;67.76
52656;SHT85;35474;51.032;6.998;2023-06-19T01:00:03;21.62;67.60
52656;SHT85;35474;51.032;6.998;2023-06-19T01:02:34;21.65;67.31
52656;SHT85;35474;51.032;6.998;2023-06-19T01:05:01;21.74;66.97
52656;SHT85;35474;51.032;6.998;2023-06-19T01:07:32;21.75;66.93
52656;SHT85;35474;51.032;6.998;2023-06-19T01:10:09;21.74;66.71
52656;SHT85;35474;51.032;6.998;2023-06-19T01:12:45;21.69;66.75
52656;SHT85;35474;51.032;6.998;2023-06-19T01:15:18;21.78;66.61
52656;SHT85;35474;51.032;6.998;2023-06-19T01:17:46;21.71;66.88
52656;SHT85;35474;51.032;6.998;2023-06-19T01:20:14;21.68;66.85
52656;SHT85;35474;51.032;6.998;2023-06-19T01:22:41;21.67;66.90
52656;SHT85;35474;51.032;6.998;2023-06-19T01:25:10;21.69;67.03
52656;SHT85;35474;51.032;6.998;2023-06-19T01:27:40;21.60;67.22
52656;SHT85;35474;51.032;6.998;2023-06-19T01:30:08;21.45;67.59
52656;SHT85;35474;51.032;6.998;2023-06-19T01:35:23;21.37;67.80
52656;SHT85;35474;51.032;6.998;2023-06-19T01:37:54;21.37;67.81
52656;SHT85;35474;51.032;6.998;2023-06-19T01:40:21;21.35;68.04
52656;SHT85;35474;51.032;6.998;2023-06-19T01:42:53;21.28;68.33
52656;SHT85;35474;51.032;6.998;2023-06-19T01:45:20;21.21;68.39
52656;SHT85;35474;51.032;6.998;2023-06-19T01:47:47;21.20;68.58
52656;SHT85;35474;51.032;6.998;2023-06-19T01:50:14;21.26;68.35
52656;SHT85;35474;51.032;6.998;2023-06-19T01:52:43;21.31;68.25
52656;SHT85;35474;51.032;6.998;2023-06-19T01:55:09;21.27;68.31
52656;SHT85;35474;51.032;6.998;2023-06-19T01:57:37;21.27;68.39
52656;SHT85;35474;51.032;6.998;2023-06-19T02:00:04;21.27;68.38
52656;SHT85;35474;51.032;6.998;2023-06-19T02:02:36;21.30;68.18
52656;SHT85;35474;51.032;6.998;2023-06-19T02:05:03;21.35;67.87
52656;SHT85;35474;51.032;6.998;2023-06-19T02:07:30;21.30;68.04
52656;SHT85;35474;51.032;6.998;2023-06-19T02:10:00;21.27;68.12
52656;SHT85;35474;51.032;6.998;2023-06-19T02:12:27;21.21;68.24
52656;SHT85;35474;51.032;6.998;2023-06-19T02:14:53;21.24;68.23
52656;SHT85;35474;51.032;6.998;2023-06-19T02:17:20;21.24;68.24
52656;SHT85;35474;51.032;6.998;2023-06-19T02:19:46;21.21;68.16
52656;SHT85;35474;51.032;6.998;2023-06-19T02:22:14;21.24;68.17
52656;SHT85;35474;51.032;6.998;2023-06-19T02:24:40;21.30;67.89
52656;SHT85;35474;51.032;6.998;2023-06-19T02:27:07;21.34;67.87
52656;SHT85;35474;51.032;6.998;2023-06-19T02:29:33;21.35;67.68
52656;SHT85;35474;51.032;6.998;2023-06-19T02:32:00;21.44;67.56
52656;SHT85;35474;51.032;6.998;2023-06-19T02:34:27;21.41;67.48
52656;SHT85;35474;51.032;6.998;2023-06-19T02:36:54;21.52;67.43
52656;SHT85;35474;51.032;6.998;2023-06-19T02:39:21;21.67;66.77
52656;SHT85;35474;51.032;6.998;2023-06-19T02:41:49;21.65;66.83
52656;SHT85;35474;51.032;6.998;2023-06-19T02:44:15;21.69;66.60
52656;SHT85;35474;51.032;6.998;2023-06-19T02:46:44;21.75;66.55
52656;SHT85;35474;51.032;6.998;2023-06-19T02:49:11;21.57;67.02
52656;SHT85;35474;51.032;6.998;2023-06-19T02:51:37;21.71;66.70
52656;SHT85;35474;51.032;6.998;2023-06-19T02:54:07;21.75;66.51
52656;SHT85;35474;51.032;6.998;2023-06-19T02:56:33;21.77;66.28
52656;SHT85;35474;51.032;6.998;2023-06-19T02:59:00;21.71;66.41
52656;SHT85;35474;51.032;6.998;2023-06-19T03:01:26;21.65;66.60
52656;SHT85;35474;51.032;6.998;2023-06-19T03:03:53;21.68;66.67
52656;SHT85;35474;51.032;6.998;2023-06-19T03:06:20;21.54;67.20
52656;SHT85;35474;51.032;6.998;2023-06-19T03:08:46;21.40;67.59
52656;SHT85;35474;51.032;6.998;2023-06-19T03:11:13;21.34;67.72
52656;SHT85;35474;51.032;6.998;2023-06-19T03:16:19;21.26;67.96
52656;SHT85;35474;51.032;6.998;2023-06-19T03:18:47;21.17;68.18
52656;SHT85;35474;51.032;6.998;2023-06-19T03:21:18;21.09;68.50
52656;SHT85;35474;51.032;6.998;2023-06-19T03:23:46;21.02;68.83
52656;SHT85;35474;51.032;6.998;2023-06-19T03:26:13;20.96;69.13
52656;SHT85;35474;51.032;6.998;2023-06-19T03:28:39;20.89;69.35
52656;SHT85;35474;51.032;6.998;2023-06-19T03:31:06;20.90;69.32
52656;SHT85;35474;51.032;6.998;2023-06-19T03:33:32;20.92;69.62
52656;SHT85;35474;51.032;6.998;2023-06-19T03:35:59;20.90;69.55
52656;SHT85;35474;51.032;6.998;2023-06-19T03:38:26;20.93;69.57
52656;SHT85;35474;51.032;6.998;2023-06-19T03:40:53;20.82;70.18
52656;SHT85;35474;51.032;6.998;2023-06-19T03:43:19;20.82;69.87
52656;SHT85;35474;51.032;6.998;2023-06-19T03:45:45;20.84;70.08
52656;SHT85;35474;51.032;6.998;2023-06-19T03:48:12;20.77;70.41
52656;SHT85;35474;51.032;6.998;2023-06-19T03:50:39;20.83;70.05
52656;SHT85;35474;51.032;6.998;2023-06-19T03:53:05;21.06;69.10
52656;SHT85;35474;51.032;6.998;2023-06-19T03:55:32;21.34;67.46
52656;SHT85;35474;51.032;6.998;2023-06-19T03:57:59;21.45;67.16
52656;SHT85;35474;51.032;6.998;2023-06-19T04:00:25;21.28;67.57
52656;SHT85;35474;51.032;6.998;2023-06-19T04:02:52;21.31;67.39
52656;SHT85;35474;51.032;6.998;2023-06-19T04:05:19;21.31;67.42
52656;SHT85;35474;51.032;6.998;2023-06-19T04:07:46;21.21;67.96
52656;SHT85;35474;51.032;6.998;2023-06-19T04:10:13;21.17;68.34
52656;SHT85;35474;51.032;6.998;2023-06-19T04:12:40;21.09;68.64
52656;SHT85;35474;51.032;6.998;2023-06-19T04:15:07;21.06;68.89
52656;SHT85;35474;51.032;6.998;2023-06-19T04:17:34;21.07;69.21
52656;SHT85;35474;51.032;6.998;2023-06-19T04:20:00;21.00;69.49
52656;SHT85;35474;51.032;6.998;2023-06-19T04:22:27;21.06;69.40
52656;SHT85;35474;51.032;6.998;2023-06-19T04:24:53;21.07;69.59
52656;SHT85;35474;51.032;6.998;2023-06-19T04:27:20;21.13;69.49
52656;SHT85;35474;51.032;6.998;2023-06-19T04:29:46;21.10;69.78
52656;SHT85;35474;51.032;6.998;2023-06-19T04:32:13;21.10;69.83
52656;SHT85;35474;51.032;6.998;2023-06-19T04:34:41;21.19;69.81
52656;SHT85;35474;51.032;6.998;2023-06-19T04:37:12;21.10;70.12
52656;SHT85;35474;51.032;6.998;2023-06-19T04:39:39;21.04;70.42
52656;SHT85;35474;51.032;6.998;2023-06-19T04:42:05;21.07;70.53
52656;SHT85;35474;51.032;6.998;2023-06-19T04:44:32;21.17;70.38
52656;SHT85;35474;51.032;6.998;2023-06-19T04:47:00;21.06;70.77
52656;SHT85;35474;51.032;6.998;2023-06-19T04:49:29;21.07;70.83
52656;SHT85;35474;51.032;6.998;2023-06-19T04:51:57;21.11;70.70
52656;SHT85;35474;51.032;6.998;2023-06-19T04:54:24;21.28;70.26
52656;SHT85;35474;51.032;6.998;2023-06-19T04:56:51;21.24;70.31
52656;SHT85;35474;51.032;6.998;2023-06-19T04:59:18;21.09;70.79
52656;SHT85;35474;51.032;6.998;2023-06-19T05:01:45;21.00;71.11
52656;SHT85;35474;51.032;6.998;2023-06-19T05:04:12;21.09;70.92
52656;SHT85;35474;51.032;6.998;2023-06-19T05:06:39;20.92;71.41
52656;SHT85;35474;51.032;6.998;2023-06-19T05:09:06;21.04;71.18
52656;SHT85;35474;51.032;6.998;2023-06-19T05:11:32;21.26;70.87
52656;SHT85;35474;51.032;6.998;2023-06-19T05:13:59;21.24;70.41
52656;SHT85;35474;51.032;6.998;2023-06-19T05:16:26;21.27;70.47
52656;SHT85;35474;51.032;6.998;2023-06-19T05:18:52;21.23;70.65
52656;SHT85;35474;51.032;6.998;2023-06-19T05:21:19;21.20;71.02
52656;SHT85;35474;51.032;6.998;2023-06-19T05:23:45;21.14;71.02
52656;SHT85;35474;51.032;6.998;2023-06-19T05:26:18;21.09;71.13
52656;SHT85;35474;51.032;6.998;2023-06-19T05:28:46;21.13;71.15
52656;SHT85;35474;51.032;6.998;2023-06-19T05:31:13;21.11;71.02
52656;SHT85;35474;51.032;6.998;2023-06-19T05:33:40;21.30;70.27
52656;SHT85;35474;51.032;6.998;2023-06-19T05:36:07;21.60;69.55
52656;SHT85;35474;51.032;6.998;2023-06-19T05:38:33;21.89;68.83
52656;SHT85;35474;51.032;6.998;2023-06-19T05:41:01;21.85;67.97
52656;SHT85;35474;51.032;6.998;2023-06-19T05:43:28;21.40;69.62
52656;SHT85;35474;51.032;6.998;2023-06-19T05:45:55;21.34;69.96
52656;SHT85;35474;51.032;6.998;2023-06-19T05:48:28;21.45;69.61
52656;SHT85;35474;51.032;6.998;2023-06-19T05:50:55;21.44;69.76
52656;SHT85;35474;51.032;6.998;2023-06-19T05:53:23;21.61;69.13
52656;SHT85;35474;51.032;6.998;2023-06-19T05:55:50;21.68;68.66
52656;SHT85;35474;51.032;6.998;2023-06-19T05:58:17;21.50;69.11
52656;SHT85;35474;51.032;6.998;2023-06-19T06:00:46;21.50;69.24
52656;SHT85;35474;51.032;6.998;2023-06-19T06:03:14;21.69;68.59
52656;SHT85;35474;51.032;6.998;2023-06-19T06:05:42;21.50;68.47
52656;SHT85;35474;51.032;6.998;2023-06-19T06:08:09;21.44;67.52
52656;SHT85;35474;51.032;6.998;2023-06-19T06:10:36;21.77;67.16
52656;SHT85;35474;51.032;6.998;2023-06-19T06:13:02;22.08;66.31
52656;SHT85;35474;51.032;6.998;2023-06-19T06:15:29;22.03;65.43
52656;SHT85;35474;51.032;6.998;2023-06-19T06:17:55;22.12;64.18
52656;SHT85;35474;51.032;6.998;2023-06-19T06:20:22;22.09;64.90
52656;SHT85;35474;51.032;6.998;2023-06-19T06:22:49;22.03;65.10
52656;SHT85;35474;51.032;6.998;2023-06-19T06:25:16;22.22;63.97
52656;SHT85;35474;51.032;6.998;2023-06-19T06:27:42;22.23;63.59
52656;SHT85;35474;51.032;6.998;2023-06-19T06:32:34;22.29;63.22
52656;SHT85;35474;51.032;6.998;2023-06-19T06:35:05;22.16;63.11
52656;SHT85;35474;51.032;6.998;2023-06-19T06:37:32;22.27;62.85
52656;SHT85;35474;51.032;6.998;2023-06-19T06:39:58;22.43;62.81
52656;SHT85;35474;51.032;6.998;2023-06-19T06:42:28;22.27;63.00
52656;SHT85;35474;51.032;6.998;2023-06-19T06:44:54;22.25;63.05
52656;SHT85;35474;51.032;6.998;2023-06-19T06:47:21;22.26;62.95
52656;SHT85;35474;51.032;6.998;2023-06-19T06:49:48;22.09;63.40
52656;SHT85;35474;51.032;6.998;2023-06-19T06:52:14;22.36;62.95
52656;SHT85;35474;51.032;6.998;2023-06-19T06:54:42;22.27;62.99
52656;SHT85;35474;51.032;6.998;2023-06-19T06:57:08;22.36;62.89
52656;SHT85;35474;51.032;6.998;2023-06-19T06:59:35;22.47;62.83
52656;SHT85;35474;51.032;6.998;2023-06-19T07:02:01;22.70;61.93
52656;SHT85;35474;51.032;6.998;2023-06-19T07:04:28;22.39;62.73
52656;SHT85;35474;51.032;6.998;2023-06-19T07:07:01;22.23;63.61
52656;SHT85;35474;51.032;6.998;2023-06-19T07:09:30;22.36;63.24
52656;SHT85;35474;51.032;6.998;2023-06-19T07:11:56;22.41;63.06
52656;SHT85;35474;51.032;6.998;2023-06-19T07:14:23;22.50;63.32
52656;SHT85;35474;51.032;6.998;2023-06-19T07:16:49;22.47;63.38
52656;SHT85;35474;51.032;6.998;2023-06-19T07:19:17;22.60;62.65
52656;SHT85;35474;51.032;6.998;2023-06-19T07:21:51;22.76;62.08
52656;SHT85;35474;51.032;6.998;2023-06-19T07:24:18;23.07;61.28
52656;SHT85;35474;51.032;6.998;2023-06-19T07:26:47;22.68;61.98
52656;SHT85;35474;51.032;6.998;2023-06-19T07:29:14;22.83;61.32
52656;SHT85;35474;51.032;6.998;2023-06-19T07:31:42;22.78;61.68
52656;SHT85;35474;51.032;6.998;2023-06-19T07:34:09;22.71;62.01
52656;SHT85;35474;51.032;6.998;2023-06-19T07:36:36;23.19;61.03
52656;SHT85;35474;51.032;6.998;2023-06-19T07:39:02;23.39;59.83
52656;SHT85;35474;51.032;6.998;2023-06-19T07:41:29;23.15;60.69
52656;SHT85;35474;51.032;6.998;2023-06-19T07:43:56;23.18;60.66
52656;SHT85;35474;51.032;6.998;2023-06-19T07:46:22;23.31;60.50
52656;SHT85;35474;51.032;6.998;2023-06-19T07:48:49;23.18;61.05
52656;SHT85;35474;51.032;6.998;2023-06-19T07:51:15;23.11;61.33
52656;SHT85;35474;51.032;6.998;2023-06-19T07:53:42;22.91;62.06
52656;SHT85;35474;51.032;6.998;2023-06-19T07:56:09;23.32;61.52
52656;SHT85;35474;51.032;6.998;2023-06-19T07:58:36;23.21;61.68
52656;SHT85;35474;51.032;6.998;2023-06-19T08:01:03;23.14;61.86
52656;SHT85;35474;51.032;6.998;2023-06-19T08:03:33;23.02;62.26
52656;SHT85;35474;51.032;6.998;2023-06-19T08:06:01;22.87;62.83
52656;SHT85;35474;51.032;6.998;2023-06-19T08:08:27;23.26;62.20
52656;SHT85;35474;51.032;6.998;2023-06-19T08:10:54;23.28;62.23
52656;SHT85;35474;51.032;6.998;2023-06-19T08:13:20;23.15;61.95
52656;SHT85;35474;51.032;6.998;2023-06-19T08:15:47;22.85;63.40
52656;SHT85;35474;51.032;6.998;2023-06-19T08:18:14;22.87;63.64
52656;SHT85;35474;51.032;6.998;2023-06-19T08:20:41;22.98;63.43
52656;SHT85;35474;51.032;6.998;2023-06-19T08:23:07;22.78;63.58
52656;SHT85;35474;51.032;6.998;2023-06-19T08:25:34;22.70;63.83
52656;SHT85;35474;51.032;6.998;2023-06-19T08:28:00;22.70;63.72
52656;SHT85;35474;51.032;6.998;2023-06-19T08:30:28;22.68;63.88
52656;SHT85;35474;51.032;6.998;2023-06-19T08:32:55;22.85;63.35
52656;SHT85;35474;51.032;6.998;2023-06-19T08:35:22;22.98;63.32
52656;SHT85;35474;51.032;6.998;2023-06-19T08:37:48;22.97;63.45
52656;SHT85;35474;51.032;6.998;2023-06-19T08:40:15;23.89;60.90
52656;SHT85;35474;51.032;6.998;2023-06-19T08:42:42;24.09;60.16
52656;SHT85;35474;51.032;6.998;2023-06-19T08:45:09;24.42;59.34
52656;SHT85;35474;51.032;6.998;2023-06-19T08:47:36;24.85;58.68
52656;SHT85;35474;51.032;6.998;2023-06-19T08:50:03;25.18;57.81
52656;SHT85;35474;51.032;6.998;2023-06-19T08:52:29;25.33;56.09
52656;SHT85;35474;51.032;6.998;2023-06-19T08:54:56;24.23;57.87
52656;SHT85;35474;51.032;6.998;2023-06-19T08:57:32;24.20;58.32
52656;SHT85;35474;51.032;6.998;2023-06-19T09:00:04;24.57;57.42
52656;SHT85;35474;51.032;6.998;2023-06-19T09:02:37;24.52;57.02
52656;SHT85;35474;51.032;6.998;2023-06-19T09:05:16;24.04;58.53
52656;SHT85;35474;51.032;6.998;2023-06-19T09:07:45;24.58;56.90
52656;SHT85;35474;51.032;6.998;2023-06-19T09:10:21;24.67;56.36
52656;SHT85;35474;51.032;6.998;2023-06-19T09:13:01;24.79;56.17
52656;SHT85;35474;51.032;6.998;2023-06-19T09:15:34;24.53;56.98
52656;SHT85;35474;51.032;6.998;2023-06-19T09:18:06;25.09;55.52
52656;SHT85;35474;51.032;6.998;2023-06-19T09:20:40;24.67;55.51
52656;SHT85;35474;51.032;6.998;2023-06-19T09:23:14;24.44;56.82
52656;SHT85;35474;51.032;6.998;2023-06-19T09:25:48;24.38;57.68
52656;SHT85;35474;51.032;6.998;2023-06-19T09:28:23;24.20;57.23
52656;SHT85;35474;51.032;6.998;2023-06-19T09:30:51;24.99;56.16
52656;SHT85;35474;51.032;6.998;2023-06-19T09:33:23;25.30;54.58
52656;SHT85;35474;51.032;6.998;2023-06-19T09:35:51;24.79;55.72
52656;SHT85;35474;51.032;6.998;2023-06-19T09:38:30;24.83;55.21
52656;SHT85;35474;51.032;6.998;2023-06-19T09:41:03;24.95;55.85
52656;SHT85;35474;51.032;6.998;2023-06-19T09:43:43;25.02;55.03
52656;SHT85;35474;51.032;6.998;2023-06-19T09:46:10;25.58;54.06
52656;SHT85;35474;51.032;6.998;2023-06-19T09:48:43;25.70;52.52
52656;SHT85;35474;51.032;6.998;2023-06-19T09:53:54;25.89;51.28
52656;SHT85;35474;51.032;6.998;2023-06-19T09:56:24;25.43;51.50
52656;SHT85;35474;51.032;6.998;2023-06-19T09:58:52;25.27;52.59
52656;SHT85;35474;51.032;6.998;2023-06-19T10:01:22;26.60;49.55
52656;SHT85;35474;51.032;6.998;2023-06-19T10:04:02;26.25;51.49
52656;SHT85;35474;51.032;6.998;2023-06-19T10:06:42;28.08;47.21
52656;SHT85;35474;51.032;6.998;2023-06-19T10:09:15;26.40;50.14
52656;SHT85;35474;51.032;6.998;2023-06-19T10:11:48;27.92;47.06
52656;SHT85;35474;51.032;6.998;2023-06-19T10:14:19;26.88;48.76
52656;SHT85;35474;51.032;6.998;2023-06-19T10:16:47;28.64;45.40
52656;SHT85;35474;51.032;6.998;2023-06-19T10:19:15;25.81;51.18
52656;SHT85;35474;51.032;6.998;2023-06-19T10:21:44;25.91;50.46
52656;SHT85;35474;51.032;6.998;2023-06-19T10:24:18;25.97;50.86
52656;SHT85;35474;51.032;6.998;2023-06-19T10:27:00;26.04;50.71
52656;SHT85;35474;51.032;6.998;2023-06-19T10:29:40;28.58;45.30
52656;SHT85;35474;51.032;6.998;2023-06-19T10:32:18;27.04;47.99
52656;SHT85;35474;51.032;6.998;2023-06-19T10:34:47;26.11;49.67
52656;SHT85;35474;51.032;6.998;2023-06-19T10:37:17;27.21;47.85
52656;SHT85;35474;51.032;6.998;2023-06-19T10:39:58;26.16;49.35
52656;SHT85;35474;51.032;6.998;2023-06-19T10:42:32;26.98;48.15
52656;SHT85;35474;51.032;6.998;2023-06-19T10:45:02;28.04;46.18
52656;SHT85;35474;51.032;6.998;2023-06-19T10:47:30;30.39;41.36
52656;SHT85;35474;51.032;6.998;2023-06-19T10:49:57;28.02;44.80
52656;SHT85;35474;51.032;6.998;2023-06-19T10:52:23;27.05;46.68
52656;SHT85;35474;51.032;6.998;2023-06-19T10:54:53;27.05;45.97
52656;SHT85;35474;51.032;6.998;2023-06-19T10:57:27;26.65;47.05
52656;SHT85;35474;51.032;6.998;2023-06-19T10:59:54;27.30;46.26
52656;SHT85;35474;51.032;6.998;2023-06-19T11:02:21;28.23;45.14
52656;SHT85;35474;51.032;6.998;2023-06-19T11:04:49;27.79;45.63
52656;SHT85;35474;51.032;6.998;2023-06-19T11:07:18;27.45;46.16
52656;SHT85;35474;51.032;6.998;2023-06-19T11:09:45;28.33;44.83
52656;SHT85;35474;51.032;6.998;2023-06-19T11:12:18;27.30;46.28
52656;SHT85;35474;51.032;6.998;2023-06-19T11:14:45;29.18;42.77
52656;SHT85;35474;51.032;6.998;2023-06-19T11:17:14;28.63;43.80
52656;SHT85;35474;51.032;6.998;2023-06-19T11:19:43;29.25;42.03
52656;SHT85;35474;51.032;6.998;2023-06-19T11:22:10;29.35;42.04
52656;SHT85;35474;51.032;6.998;2023-06-19T11:24:42;29.77;40.95
52656;SHT85;35474;51.032;6.998;2023-06-19T11:27:16;28.12;44.60
52656;SHT85;35474;51.032;6.998;2023-06-19T11:29:44;29.45;41.86
52656;SHT85;35474;51.032;6.998;2023-06-19T11:32:14;30.66;39.88
52656;SHT85;35474;51.032;6.998;2023-06-19T11:34:41;29.18;42.14
52656;SHT85;35474;51.032;6.998;2023-06-19T11:37:16;28.64;43.00
52656;SHT85;35474;51.032;6.998;2023-06-19T11:39:45;31.58;38.23
52656;SHT85;35474;51.032;6.998;2023-06-19T11:42:19;31.44;38.62
52656;SHT85;35474;51.032;6.998;2023-06-19T11:44:56;31.13;39.48
52656;SHT85;35474;51.032;6.998;2023-06-19T11:47:33;31.75;38.36
52656;SHT85;35474;51.032;6.998;2023-06-19T11:50:03;32.83;36.38
52656;SHT85;35474;51.032;6.998;2023-06-19T11:52:31;30.79;39.91
52656;SHT85;35474;51.032;6.998;2023-06-19T11:54:58;28.94;43.35
52656;SHT85;35474;51.032;6.998;2023-06-19T11:57:24;30.39;41.12
52656;SHT85;35474;51.032;6.998;2023-06-19T11:59:53;31.13;39.95
52656;SHT85;35474;51.032;6.998;2023-06-19T12:02:21;30.14;40.93
52656;SHT85;35474;51.032;6.998;2023-06-19T12:04:48;29.88;41.32
52656;SHT85;35474;51.032;6.998;2023-06-19T12:07:15;29.28;42.89
52656;SHT85;35474;51.032;6.998;2023-06-19T12:09:42;30.48;40.14
52656;SHT85;35474;51.032;6.998;2023-06-19T12:12:09;31.89;37.28
52656;SHT85;35474;51.032;6.998;2023-06-19T12:14:36;30.49;38.25
52656;SHT85;35474;51.032;6.998;2023-06-19T12:17:03;30.52;39.09
52656;SHT85;35474;51.032;6.998;2023-06-19T12:19:30;30.20;39.54
52656;SHT85;35474;51.032;6.998;2023-06-19T12:21:56;31.31;38.14
52656;SHT85;35474;51.032;6.998;2023-06-19T12:24:25;29.81;40.74
52656;SHT85;35474;51.032;6.998;2023-06-19T12:26:51;31.35;38.22
52656;SHT85;35474;51.032;6.998;2023-06-19T12:29:18;31.40;36.91
52656;SHT85;35474;51.032;6.998;2023-06-19T12:31:47;30.82;37.76
52656;SHT85;35474;51.032;6.998;2023-06-19T12:34:14;31.44;35.96
52656;SHT85;35474;51.032;6.998;2023-06-19T12:36:56;32.15;35.57
52656;SHT85;35474;51.032;6.998;2023-06-19T12:39:26;31.85;36.06
52656;SHT85;35474;51.032;6.998;2023-06-19T12:41:52;30.32;38.95
52656;SHT85;35474;51.032;6.998;2023-06-19T12:44:20;31.89;37.14
52656;SHT85;35474;51.032;6.998;2023-06-19T12:46:48;32.69;35.56
52656;SHT85;35474;51.032;6.998;2023-06-19T12:49:14;31.71;37.71
52656;SHT85;35474;51.032;6.998;2023-06-19T12:51:41;32.10;37.21
52656;SHT85;35474;51.032;6.998;2023-06-19T12:54:08;30.86;39.27
52656;SHT85;35474;51.032;6.998;2023-06-19T12:56:34;31.94;37.23
52656;SHT85;35474;51.032;6.998;2023-06-19T12:59:01;29.70;40.22
52656;SHT85;35474;51.032;6.998;2023-06-19T13:01:27;29.35;41.51
52656;SHT85;35474;51.032;6.998;2023-06-19T13:03:54;29.35;41.92
52656;SHT85;35474;51.032;6.998;2023-06-19T13:06:21;30.53;39.48
52656;SHT85;35474;51.032;6.998;2023-06-19T13:08:47;29.29;41.89
52656;SHT85;35474;51.032;6.998;2023-06-19T13:11:14;28.84;42.16
52656;SHT85;35474;51.032;6.998;2023-06-19T13:13:41;29.33;42.25
52656;SHT85;35474;51.032;6.998;2023-06-19T13:16:07;30.59;39.61
52656;SHT85;35474;51.032;6.998;2023-06-19T13:18:39;30.39;39.58
52656;SHT85;35474;51.032;6.998;2023-06-19T13:21:06;31.78;37.35
52656;SHT85;35474;51.032;6.998;2023-06-19T13:23:33;31.29;38.47
52656;SHT85;35474;51.032;6.998;2023-06-19T13:25:59;32.20;36.89
52656;SHT85;35474;51.032;6.998;2023-06-19T13:28:26;30.07;39.79
52656;SHT85;35474;51.032;6.998;2023-06-19T13:30:52;30.27;39.11
52656;SHT85;35474;51.032;6.998;2023-06-19T13:33:19;30.02;39.59
52656;SHT85;35474;51.032;6.998;2023-06-19T13:35:45;31.02;38.43
52656;SHT85;35474;51.032;6.998;2023-06-19T13:38:16;32.29;36.36
52656;SHT85;35474;51.032;6.998;2023-06-19T13:40:43;32.87;35.17
52656;SHT85;35474;51.032;6.998;2023-06-19T13:43:14;31.65;37.04
52656;SHT85;35474;51.032;6.998;2023-06-19T13:45:43;32.80;35.37
52656;SHT85;35474;51.032;6.998;2023-06-19T13:48:17;32.37;35.92
52656;SHT85;35474;51.032;6.998;2023-06-19T13:50:54;31.10;37.08
52656;SHT85;35474;51.032;6.998;2023-06-19T13:53:21;29.59;40.03
52656;SHT85;35474;51.032;6.998;2023-06-19T13:55:48;30.04;38.71
52656;SHT85;35474;51.032;6.998;2023-06-19T13:58:21;32.50;35.38
52656;SHT85;35474;51.032;6.998;2023-06-19T14:00:56;33.69;32.96
52656;SHT85;35474;51.032;6.998;2023-06-19T14:03:24;34.03;32.73
52656;SHT85;35474;51.032;6.998;2023-06-19T14:05:53;34.47;31.88
52656;SHT85;35474;51.032;6.998;2023-06-19T14:08:20;33.51;33.89
52656;SHT85;35474;51.032;6.998;2023-06-19T14:10:46;33.61;33.42
52656;SHT85;35474;51.032;6.998;2023-06-19T14:13:14;34.68;31.99
52656;SHT85;35474;51.032;6.998;2023-06-19T14:15:40;32.72;35.26
52656;SHT85;35474;51.032;6.998;2023-06-19T14:18:07;33.24;34.44
52656;SHT85;35474;51.032;6.998;2023-06-19T14:20:33;33.89;33.21
52656;SHT85;35474;51.032;6.998;2023-06-19T14:23:00;32.08;35.08
52656;SHT85;35474;51.032;6.998;2023-06-19T14:25:27;33.11;33.98
52656;SHT85;35474;51.032;6.998;2023-06-19T14:27:53;34.25;32.75
52656;SHT85;35474;51.032;6.998;2023-06-19T14:30:20;34.06;33.11
52656;SHT85;35474;51.032;6.998;2023-06-19T14:32:47;31.72;35.84
52656;SHT85;35474;51.032;6.998;2023-06-19T14:35:14;33.35;33.74
52656;SHT85;35474;51.032;6.998;2023-06-19T14:37:41;32.13;35.25
52656;SHT85;35474;51.032;6.998;2023-06-19T14:40:08;31.42;36.19
52656;SHT85;35474;51.032;6.998;2023-06-19T14:42:35;30.53;38.08
52656;SHT85;35474;51.032;6.998;2023-06-19T14:45:03;32.57;35.21
52656;SHT85;35474;51.032;6.998;2023-06-19T14:47:30;32.74;34.18
52656;SHT85;35474;51.032;6.998;2023-06-19T14:49:57;32.10;35.82
52656;SHT85;35474;51.032;6.998;2023-06-19T14:52:23;32.57;34.66
52656;SHT85;35474;51.032;6.998;2023-06-19T14:54:50;31.47;35.98
52656;SHT85;35474;51.032;6.998;2023-06-19T14:57:17;31.40;36.34
52656;SHT85;35474;51.032;6.998;2023-06-19T14:59:44;31.29;36.69
52656;SHT85;35474;51.032;6.998;2023-06-19T15:02:10;31.07;36.63
52656;SHT85;35474;51.032;6.998;2023-06-19T15:04:37;32.05;35.35
52656;SHT85;35474;51.032;6.998;2023-06-19T15:07:06;33.37;33.94
52656;SHT85;35474;51.032;6.998;2023-06-19T15:09:33;33.51;33.66
52656;SHT85;35474;51.032;6.998;2023-06-19T15:11:59;33.98;32.89
52656;SHT85;35474;51.032;6.998;2023-06-19T15:14:26;33.21;32.97
52656;SHT85;35474;51.032;6.998;2023-06-19T15:16:55;33.48;33.34
52656;SHT85;35474;51.032;6.998;2023-06-19T15:19:22;33.69;33.29
52656;SHT85;35474;51.032;6.998;2023-06-19T15:21:50;33.27;33.45
52656;SHT85;35474;51.032;6.998;2023-06-19T15:24:16;33.65;33.23
52656;SHT85;35474;51.032;6.998;2023-06-19T15:26:43;34.39;32.00
52656;SHT85;35474;51.032;6.998;2023-06-19T15:29:10;33.92;32.89
52656;SHT85;35474;51.032;6.998;2023-06-19T15:31:36;32.04;34.59
52656;SHT85;35474;51.032;6.998;2023-06-19T15:34:03;32.88;33.60
52656;SHT85;35474;51.032;6.998;2023-06-19T15:36:29;33.17;33.30
52656;SHT85;35474;51.032;6.998;2023-06-19T15:38:56;32.79;33.64
52656;SHT85;35474;51.032;6.998;2023-06-19T15:41:22;33.14;33.59
52656;SHT85;35474;51.032;6.998;2023-06-19T15:43:49;32.97;33.97
52656;SHT85;35474;51.032;6.998;2023-06-19T15:46:16;33.27;32.83